sensor_id;sensor_type;location;lat;lon;timestamp;pressure;altitude;pressure_sealevel;temperature
11728;BMP180;5920;49.166;8.624;2022-08-25T00:01:32;100381.00;;;24.90
11728;BMP180;5920;49.166;8.624;2022-08-25T00:04:00;100386.00;;;24.90
11728;BMP180;5920;49.166;8.624;2022-08-25T00:06:26;100382.00;;;24.90
11728;BMP180;5920;49.166;8.624;2022-08-25T00:08:53;100381.00;;;24.80
11728;BMP180;5920;49.166;8.624;2022-08-25T00:11:23;100382.00;;;24.70
11728;BMP180;5920;49.166;8.624;2022-08-25T00:13:51;100381.00;;;24.70
11728;BMP180;5920;49.166;8.624;2022-08-25T00:16:20;100383.00;;;24.70
11728;BMP180;5920;49.166;8.624;2022-08-25T00:18:48;100383.00;;;24.70
11728;BMP180;5920;49.166;8.624;2022-08-25T00:21:15;100382.00;;;24.70
11728;BMP180;5920;49.166;8.624;2022-08-25T00:23:42;100383.00;;;24.60
11728;BMP180;5920;49.166;8.624;2022-08-25T00:26:09;100383.00;;;24.60
11728;BMP180;5920;49.166;8.624;2022-08-25T00:28:36;100379.00;;;24.60
11728;BMP180;5920;49.166;8.624;2022-08-25T00:31:04;100380.00;;;24.60
11728;BMP180;5920;49.166;8.624;2022-08-25T00:33:32;100387.00;;;24.60
11728;BMP180;5920;49.166;8.624;2022-08-25T00:35:58;100387.00;;;24.50
11728;BMP180;5920;49.166;8.624;2022-08-25T00:38:25;100386.00;;;24.50
11728;BMP180;5920;49.166;8.624;2022-08-25T00:40:51;100389.00;;;24.50
11728;BMP180;5920;49.166;8.624;2022-08-25T00:43:32;100390.00;;;24.50
11728;BMP180;5920;49.166;8.624;2022-08-25T00:45:59;100389.00;;;24.50
11728;BMP180;5920;49.166;8.624;2022-08-25T00:48:27;100391.00;;;24.50
11728;BMP180;5920;49.166;8.624;2022-08-25T00:50:54;100394.00;;;24.40
11728;BMP180;5920;49.166;8.624;2022-08-25T00:53:21;100393.00;;;24.40
11728;BMP180;5920;49.166;8.624;2022-08-25T00:55:48;100397.00;;;24.40
11728;BMP180;5920;49.166;8.624;2022-08-25T00:58:15;100392.00;;;24.40
11728;BMP180;5920;49.166;8.624;2022-08-25T01:00:44;100399.00;;;24.40
11728;BMP180;5920;49.166;8.624;2022-08-25T01:03:11;100393.00;;;24.40
11728;BMP180;5920;49.166;8.624;2022-08-25T01:05:37;100388.00;;;24.40
11728;BMP180;5920;49.166;8.624;2022-08-25T01:08:06;100384.00;;;24.30
11728;BMP180;5920;49.166;8.624;2022-08-25T01:10:33;100377.00;;;24.30
11728;BMP180;5920;49.166;8.624;2022-08-25T01:13:02;100378.00;;;24.20
11728;BMP180;5920;49.166;8.624;2022-08-25T01:15:30;100385.00;;;24.20
11728;BMP180;5920;49.166;8.624;2022-08-25T01:17:57;100380.00;;;24.20
11728;BMP180;5920;49.166;8.624;2022-08-25T01:20:24;100382.00;;;24.20
11728;BMP180;5920;49.166;8.624;2022-08-25T01:22:53;100377.00;;;24.20
11728;BMP180;5920;49.166;8.624;2022-08-25T01:25:22;100379.00;;;24.20
11728;BMP180;5920;49.166;8.624;2022-08-25T01:27:50;100375.00;;;24.10
11728;BMP180;5920;49.166;8.624;2022-08-25T01:30:17;100391.00;;;24.10
11728;BMP180;5920;49.166;8.624;2022-08-25T01:32:43;100388.00;;;24.10
11728;BMP180;5920;49.166;8.624;2022-08-25T01:35:10;100387.00;;;24.10
11728;BMP180;5920;49.166;8.624;2022-08-25T01:37:36;100384.00;;;24.10
11728;BMP180;5920;49.166;8.624;2022-08-25T01:40:04;100384.00;;;24.00
11728;BMP180;5920;49.166;8.624;2022-08-25T01:42:37;100380.00;;;23.90
11728;BMP180;5920;49.166;8.624;2022-08-25T01:45:07;100384.00;;;23.70
11728;BMP180;5920;49.166;8.624;2022-08-25T01:47:34;100386.00;;;23.50
11728;BMP180;5920;49.166;8.624;2022-08-25T01:50:02;100390.00;;;23.40
11728;BMP180;5920;49.166;8.624;2022-08-25T01:52:31;100388.00;;;23.20
11728;BMP180;5920;49.166;8.624;2022-08-25T01:54:58;100385.00;;;23.20
11728;BMP180;5920;49.166;8.624;2022-08-25T01:57:27;100385.00;;;23.20
11728;BMP180;5920;49.166;8.624;2022-08-25T01:59:54;100389.00;;;23.30
11728;BMP180;5920;49.166;8.624;2022-08-25T02:02:20;100389.00;;;23.40
11728;BMP180;5920;49.166;8.624;2022-08-25T02:04:47;100393.00;;;23.40
11728;BMP180;5920;49.166;8.624;2022-08-25T02:07:13;100386.00;;;23.40
11728;BMP180;5920;49.166;8.624;2022-08-25T02:09:40;100387.00;;;23.40
11728;BMP180;5920;49.166;8.624;2022-08-25T02:12:06;100389.00;;;23.30
11728;BMP180;5920;49.166;8.624;2022-08-25T02:14:35;100390.00;;;23.20
11728;BMP180;5920;49.166;8.624;2022-08-25T02:17:02;100378.00;;;23.20
11728;BMP180;5920;49.166;8.624;2022-08-25T02:19:29;100384.00;;;23.30
11728;BMP180;5920;49.166;8.624;2022-08-25T02:21:56;100381.00;;;23.30
11728;BMP180;5920;49.166;8.624;2022-08-25T02:24:22;100380.00;;;23.30
11728;BMP180;5920;49.166;8.624;2022-08-25T02:26:49;100384.00;;;23.40
11728;BMP180;5920;49.166;8.624;2022-08-25T02:29:16;100377.00;;;23.40
11728;BMP180;5920;49.166;8.624;2022-08-25T02:31:44;100375.00;;;23.40
11728;BMP180;5920;49.166;8.624;2022-08-25T02:34:11;100378.00;;;23.50
11728;BMP180;5920;49.166;8.624;2022-08-25T02:36:39;100370.00;;;23.50
11728;BMP180;5920;49.166;8.624;2022-08-25T02:39:06;100364.00;;;23.40
11728;BMP180;5920;49.166;8.624;2022-08-25T02:41:33;100363.00;;;23.30
11728;BMP180;5920;49.166;8.624;2022-08-25T02:44:00;100365.00;;;23.30
11728;BMP180;5920;49.166;8.624;2022-08-25T02:46:27;100363.00;;;23.30
11728;BMP180;5920;49.166;8.624;2022-08-25T02:48:55;100365.00;;;23.30
11728;BMP180;5920;49.166;8.624;2022-08-25T02:51:22;100364.00;;;23.20
11728;BMP180;5920;49.166;8.624;2022-08-25T02:53:49;100365.00;;;23.10
11728;BMP180;5920;49.166;8.624;2022-08-25T02:56:16;100369.00;;;22.90
11728;BMP180;5920;49.166;8.624;2022-08-25T02:58:43;100362.00;;;22.80
11728;BMP180;5920;49.166;8.624;2022-08-25T03:01:10;100367.00;;;22.70
11728;BMP180;5920;49.166;8.624;2022-08-25T03:03:37;100366.00;;;22.60
11728;BMP180;5920;49.166;8.624;2022-08-25T03:06:05;100365.00;;;22.50
11728;BMP180;5920;49.166;8.624;2022-08-25T03:08:32;100371.00;;;22.40
11728;BMP180;5920;49.166;8.624;2022-08-25T03:10:58;100363.00;;;22.40
11728;BMP180;5920;49.166;8.624;2022-08-25T03:13:25;100368.00;;;22.30
11728;BMP180;5920;49.166;8.624;2022-08-25T03:15:51;100365.00;;;22.20
11728;BMP180;5920;49.166;8.624;2022-08-25T03:18:18;100368.00;;;22.20
11728;BMP180;5920;49.166;8.624;2022-08-25T03:20:44;100363.00;;;22.20
11728;BMP180;5920;49.166;8.624;2022-08-25T03:23:12;100369.00;;;22.30
11728;BMP180;5920;49.166;8.624;2022-08-25T03:25:39;100358.00;;;22.30
11728;BMP180;5920;49.166;8.624;2022-08-25T03:28:23;100360.00;;;22.40
11728;BMP180;5920;49.166;8.624;2022-08-25T03:30:49;100362.00;;;22.40
11728;BMP180;5920;49.166;8.624;2022-08-25T03:33:15;100359.00;;;22.30
11728;BMP180;5920;49.166;8.624;2022-08-25T03:35:42;100359.00;;;22.30
11728;BMP180;5920;49.166;8.624;2022-08-25T03:38:08;100361.00;;;22.50
11728;BMP180;5920;49.166;8.624;2022-08-25T03:40:36;100359.00;;;22.60
11728;BMP180;5920;49.166;8.624;2022-08-25T03:43:05;100355.00;;;22.60
11728;BMP180;5920;49.166;8.624;2022-08-25T03:45:31;100348.00;;;22.60
11728;BMP180;5920;49.166;8.624;2022-08-25T03:47:57;100340.00;;;22.70
11728;BMP180;5920;49.166;8.624;2022-08-25T03:50:24;100333.00;;;22.80
11728;BMP180;5920;49.166;8.624;2022-08-25T03:52:51;100331.00;;;22.80
11728;BMP180;5920;49.166;8.624;2022-08-25T03:55:18;100322.00;;;22.80
11728;BMP180;5920;49.166;8.624;2022-08-25T03:57:46;100322.00;;;22.80
11728;BMP180;5920;49.166;8.624;2022-08-25T04:00:12;100324.00;;;22.80
11728;BMP180;5920;49.166;8.624;2022-08-25T04:02:39;100321.00;;;22.80
11728;BMP180;5920;49.166;8.624;2022-08-25T04:05:06;100330.00;;;22.80
11728;BMP180;5920;49.166;8.624;2022-08-25T04:07:33;100331.00;;;22.80
11728;BMP180;5920;49.166;8.624;2022-08-25T04:09:59;100331.00;;;22.80
11728;BMP180;5920;49.166;8.624;2022-08-25T04:12:25;100338.00;;;22.80
11728;BMP180;5920;49.166;8.624;2022-08-25T04:14:53;100339.00;;;22.80
11728;BMP180;5920;49.166;8.624;2022-08-25T04:17:19;100346.00;;;22.70
11728;BMP180;5920;49.166;8.624;2022-08-25T04:19:46;100351.00;;;22.50
11728;BMP180;5920;49.166;8.624;2022-08-25T04:22:13;100349.00;;;22.30
11728;BMP180;5920;49.166;8.624;2022-08-25T04:24:39;100344.00;;;22.10
11728;BMP180;5920;49.166;8.624;2022-08-25T04:27:06;100357.00;;;22.00
11728;BMP180;5920;49.166;8.624;2022-08-25T04:29:32;100348.00;;;21.80
11728;BMP180;5920;49.166;8.624;2022-08-25T04:32:00;100359.00;;;21.70
11728;BMP180;5920;49.166;8.624;2022-08-25T04:34:27;100351.00;;;21.70
11728;BMP180;5920;49.166;8.624;2022-08-25T04:36:53;100355.00;;;21.80
11728;BMP180;5920;49.166;8.624;2022-08-25T04:39:20;100363.00;;;21.90
11728;BMP180;5920;49.166;8.624;2022-08-25T04:41:46;100350.00;;;22.00
11728;BMP180;5920;49.166;8.624;2022-08-25T04:44:13;100351.00;;;22.00
11728;BMP180;5920;49.166;8.624;2022-08-25T04:46:39;100344.00;;;22.10
11728;BMP180;5920;49.166;8.624;2022-08-25T04:49:07;100348.00;;;22.10
11728;BMP180;5920;49.166;8.624;2022-08-25T04:51:35;100347.00;;;22.00
11728;BMP180;5920;49.166;8.624;2022-08-25T04:54:02;100332.00;;;22.00
11728;BMP180;5920;49.166;8.624;2022-08-25T04:56:30;100350.00;;;21.90
11728;BMP180;5920;49.166;8.624;2022-08-25T04:59:00;100343.00;;;21.90
11728;BMP180;5920;49.166;8.624;2022-08-25T05:01:26;100350.00;;;21.90
11728;BMP180;5920;49.166;8.624;2022-08-25T05:03:54;100344.00;;;21.90
11728;BMP180;5920;49.166;8.624;2022-08-25T05:06:22;100337.00;;;21.90
11728;BMP180;5920;49.166;8.624;2022-08-25T05:08:49;100345.00;;;21.80
11728;BMP180;5920;49.166;8.624;2022-08-25T05:11:16;100341.00;;;21.70
11728;BMP180;5920;49.166;8.624;2022-08-25T05:13:43;100344.00;;;21.70
11728;BMP180;5920;49.166;8.624;2022-08-25T05:16:10;100347.00;;;22.00
11728;BMP180;5920;49.166;8.624;2022-08-25T05:18:36;100345.00;;;22.30
11728;BMP180;5920;49.166;8.624;2022-08-25T05:21:04;100340.00;;;22.50
11728;BMP180;5920;49.166;8.624;2022-08-25T05:23:31;100340.00;;;22.70
11728;BMP180;5920;49.166;8.624;2022-08-25T05:26:00;100332.00;;;22.90
11728;BMP180;5920;49.166;8.624;2022-08-25T05:28:27;100333.00;;;23.00
11728;BMP180;5920;49.166;8.624;2022-08-25T05:30:56;100337.00;;;23.10
11728;BMP180;5920;49.166;8.624;2022-08-25T05:33:23;100322.00;;;23.30
11728;BMP180;5920;49.166;8.624;2022-08-25T05:35:49;100331.00;;;23.50
11728;BMP180;5920;49.166;8.624;2022-08-25T05:38:16;100326.00;;;23.80
11728;BMP180;5920;49.166;8.624;2022-08-25T05:40:44;100331.00;;;24.00
11728;BMP180;5920;49.166;8.624;2022-08-25T05:43:10;100333.00;;;24.20
11728;BMP180;5920;49.166;8.624;2022-08-25T05:45:38;100337.00;;;24.30
11728;BMP180;5920;49.166;8.624;2022-08-25T05:48:05;100332.00;;;24.40
11728;BMP180;5920;49.166;8.624;2022-08-25T05:50:32;100337.00;;;24.50
11728;BMP180;5920;49.166;8.624;2022-08-25T05:52:58;100336.00;;;24.50
11728;BMP180;5920;49.166;8.624;2022-08-25T05:55:25;100337.00;;;24.70
11728;BMP180;5920;49.166;8.624;2022-08-25T05:57:53;100343.00;;;24.90
11728;BMP180;5920;49.166;8.624;2022-08-25T06:00:19;100345.00;;;25.10
11728;BMP180;5920;49.166;8.624;2022-08-25T06:02:46;100339.00;;;25.40
11728;BMP180;5920;49.166;8.624;2022-08-25T06:05:14;100338.00;;;25.60
11728;BMP180;5920;49.166;8.624;2022-08-25T06:07:41;100340.00;;;25.80
11728;BMP180;5920;49.166;8.624;2022-08-25T06:10:08;100335.00;;;26.00
11728;BMP180;5920;49.166;8.624;2022-08-25T06:12:38;100338.00;;;26.20
11728;BMP180;5920;49.166;8.624;2022-08-25T06:15:06;100324.00;;;26.40
11728;BMP180;5920;49.166;8.624;2022-08-25T06:17:33;100336.00;;;26.60
11728;BMP180;5920;49.166;8.624;2022-08-25T06:20:05;100335.00;;;26.70
11728;BMP180;5920;49.166;8.624;2022-08-25T06:22:32;100326.00;;;26.90
11728;BMP180;5920;49.166;8.624;2022-08-25T06:24:58;100336.00;;;27.00
11728;BMP180;5920;49.166;8.624;2022-08-25T06:27:24;100333.00;;;27.20
11728;BMP180;5920;49.166;8.624;2022-08-25T06:29:51;100341.00;;;27.10
11728;BMP180;5920;49.166;8.624;2022-08-25T06:32:19;100330.00;;;27.10
11728;BMP180;5920;49.166;8.624;2022-08-25T06:34:45;100331.00;;;27.20
11728;BMP180;5920;49.166;8.624;2022-08-25T06:37:12;100326.00;;;27.30
11728;BMP180;5920;49.166;8.624;2022-08-25T06:39:38;100320.00;;;27.50
11728;BMP180;5920;49.166;8.624;2022-08-25T06:42:09;100323.00;;;27.60
11728;BMP180;5920;49.166;8.624;2022-08-25T06:44:35;100324.00;;;27.80
11728;BMP180;5920;49.166;8.624;2022-08-25T06:47:02;100323.00;;;27.90
11728;BMP180;5920;49.166;8.624;2022-08-25T06:49:29;100333.00;;;28.00
11728;BMP180;5920;49.166;8.624;2022-08-25T06:51:56;100335.00;;;28.00
11728;BMP180;5920;49.166;8.624;2022-08-25T06:54:22;100322.00;;;28.00
11728;BMP180;5920;49.166;8.624;2022-08-25T06:56:49;100316.00;;;27.90
11728;BMP180;5920;49.166;8.624;2022-08-25T06:59:15;100312.00;;;28.00
11728;BMP180;5920;49.166;8.624;2022-08-25T07:01:42;100309.00;;;28.10
11728;BMP180;5920;49.166;8.624;2022-08-25T07:04:08;100314.00;;;28.20
11728;BMP180;5920;49.166;8.624;2022-08-25T07:06:36;100308.00;;;28.30
11728;BMP180;5920;49.166;8.624;2022-08-25T07:09:04;100320.00;;;28.40
11728;BMP180;5920;49.166;8.624;2022-08-25T07:11:31;100315.00;;;28.40
11728;BMP180;5920;49.166;8.624;2022-08-25T07:13:58;100313.00;;;28.40
11728;BMP180;5920;49.166;8.624;2022-08-25T07:16:25;100311.00;;;28.50
11728;BMP180;5920;49.166;8.624;2022-08-25T07:18:51;100305.00;;;28.60
11728;BMP180;5920;49.166;8.624;2022-08-25T07:21:20;100310.00;;;28.80
11728;BMP180;5920;49.166;8.624;2022-08-25T07:23:48;100305.00;;;28.90
11728;BMP180;5920;49.166;8.624;2022-08-25T07:26:15;100298.00;;;29.10
11728;BMP180;5920;49.166;8.624;2022-08-25T07:28:42;100300.00;;;29.10
11728;BMP180;5920;49.166;8.624;2022-08-25T07:31:09;100301.00;;;29.10
11728;BMP180;5920;49.166;8.624;2022-08-25T07:33:36;100298.00;;;29.20
11728;BMP180;5920;49.166;8.624;2022-08-25T07:36:02;100296.00;;;29.40
11728;BMP180;5920;49.166;8.624;2022-08-25T07:38:28;100306.00;;;29.40
11728;BMP180;5920;49.166;8.624;2022-08-25T07:41:00;100296.00;;;29.50
11728;BMP180;5920;49.166;8.624;2022-08-25T07:43:31;100288.00;;;29.70
11728;BMP180;5920;49.166;8.624;2022-08-25T07:45:58;100292.00;;;29.90
11728;BMP180;5920;49.166;8.624;2022-08-25T07:48:24;100289.00;;;29.90
11728;BMP180;5920;49.166;8.624;2022-08-25T07:50:50;100297.00;;;30.10
11728;BMP180;5920;49.166;8.624;2022-08-25T07:53:18;100297.00;;;30.20
11728;BMP180;5920;49.166;8.624;2022-08-25T07:55:45;100295.00;;;30.10
11728;BMP180;5920;49.166;8.624;2022-08-25T07:58:12;100306.00;;;30.30
11728;BMP180;5920;49.166;8.624;2022-08-25T08:00:39;100296.00;;;30.50
11728;BMP180;5920;49.166;8.624;2022-08-25T08:03:06;100309.00;;;30.50
11728;BMP180;5920;49.166;8.624;2022-08-25T08:05:34;100300.00;;;30.30
11728;BMP180;5920;49.166;8.624;2022-08-25T08:08:01;100295.00;;;30.30
11728;BMP180;5920;49.166;8.624;2022-08-25T08:10:28;100300.00;;;30.40
11728;BMP180;5920;49.166;8.624;2022-08-25T08:12:54;100304.00;;;30.40
11728;BMP180;5920;49.166;8.624;2022-08-25T08:15:22;100304.00;;;30.50
11728;BMP180;5920;49.166;8.624;2022-08-25T08:17:49;100307.00;;;30.50
11728;BMP180;5920;49.166;8.624;2022-08-25T08:20:15;100309.00;;;30.50
11728;BMP180;5920;49.166;8.624;2022-08-25T08:22:42;100313.00;;;30.50
11728;BMP180;5920;49.166;8.624;2022-08-25T08:25:09;100304.00;;;30.50
11728;BMP180;5920;49.166;8.624;2022-08-25T08:27:36;100313.00;;;30.50
11728;BMP180;5920;49.166;8.624;2022-08-25T08:30:04;100314.00;;;30.30
11728;BMP180;5920;49.166;8.624;2022-08-25T08:32:32;100311.00;;;30.30
11728;BMP180;5920;49.166;8.624;2022-08-25T08:34:58;100300.00;;;30.40
11728;BMP180;5920;49.166;8.624;2022-08-25T08:37:25;100302.00;;;30.40
11728;BMP180;5920;49.166;8.624;2022-08-25T08:39:52;100291.00;;;30.40
11728;BMP180;5920;49.166;8.624;2022-08-25T08:42:22;100305.00;;;30.60
11728;BMP180;5920;49.166;8.624;2022-08-25T08:45:03;100299.00;;;30.70
11728;BMP180;5920;49.166;8.624;2022-08-25T08:47:37;100302.00;;;31.00
11728;BMP180;5920;49.166;8.624;2022-08-25T08:50:24;100291.00;;;31.20
11728;BMP180;5920;49.166;8.624;2022-08-25T08:52:52;100292.00;;;31.30
11728;BMP180;5920;49.166;8.624;2022-08-25T08:55:22;100288.00;;;31.40
11728;BMP180;5920;49.166;8.624;2022-08-25T08:57:49;100289.00;;;31.40
11728;BMP180;5920;49.166;8.624;2022-08-25T09:00:17;100294.00;;;31.30
11728;BMP180;5920;49.166;8.624;2022-08-25T09:02:48;100288.00;;;31.30
11728;BMP180;5920;49.166;8.624;2022-08-25T09:05:15;100288.00;;;31.10
11728;BMP180;5920;49.166;8.624;2022-08-25T09:07:45;100281.00;;;31.10
11728;BMP180;5920;49.166;8.624;2022-08-25T09:10:13;100279.00;;;31.30
11728;BMP180;5920;49.166;8.624;2022-08-25T09:12:41;100293.00;;;31.20
11728;BMP180;5920;49.166;8.624;2022-08-25T09:15:12;100284.00;;;31.10
11728;BMP180;5920;49.166;8.624;2022-08-25T09:17:44;100288.00;;;30.90
11728;BMP180;5920;49.166;8.624;2022-08-25T09:20:24;100280.00;;;31.00
11728;BMP180;5920;49.166;8.624;2022-08-25T09:22:56;100274.00;;;31.00
11728;BMP180;5920;49.166;8.624;2022-08-25T09:25:27;100273.00;;;31.10
11728;BMP180;5920;49.166;8.624;2022-08-25T09:28:01;100282.00;;;31.10
11728;BMP180;5920;49.166;8.624;2022-08-25T09:30:32;100277.00;;;31.00
11728;BMP180;5920;49.166;8.624;2022-08-25T09:33:02;100262.00;;;31.00
11728;BMP180;5920;49.166;8.624;2022-08-25T09:35:31;100258.00;;;31.10
11728;BMP180;5920;49.166;8.624;2022-08-25T09:37:59;100252.00;;;31.10
11728;BMP180;5920;49.166;8.624;2022-08-25T09:40:26;100245.00;;;31.00
11728;BMP180;5920;49.166;8.624;2022-08-25T09:42:53;100249.00;;;31.10
11728;BMP180;5920;49.166;8.624;2022-08-25T09:45:30;100253.00;;;30.90
11728;BMP180;5920;49.166;8.624;2022-08-25T09:47:57;100255.00;;;30.60
11728;BMP180;5920;49.166;8.624;2022-08-25T09:50:23;100260.00;;;30.60
11728;BMP180;5920;49.166;8.624;2022-08-25T09:52:51;100251.00;;;30.60
11728;BMP180;5920;49.166;8.624;2022-08-25T09:55:23;100252.00;;;30.70
11728;BMP180;5920;49.166;8.624;2022-08-25T09:57:51;100244.00;;;30.80
11728;BMP180;5920;49.166;8.624;2022-08-25T10:00:21;100229.00;;;31.00
11728;BMP180;5920;49.166;8.624;2022-08-25T10:02:59;100228.00;;;31.20
11728;BMP180;5920;49.166;8.624;2022-08-25T10:05:27;100225.00;;;31.40
11728;BMP180;5920;49.166;8.624;2022-08-25T10:08:00;100225.00;;;31.60
11728;BMP180;5920;49.166;8.624;2022-08-25T10:10:28;100224.00;;;31.50
11728;BMP180;5920;49.166;8.624;2022-08-25T10:12:55;100222.00;;;31.50
11728;BMP180;5920;49.166;8.624;2022-08-25T10:15:26;100224.00;;;31.50
11728;BMP180;5920;49.166;8.624;2022-08-25T10:17:53;100225.00;;;31.50
11728;BMP180;5920;49.166;8.624;2022-08-25T10:20:21;100215.00;;;31.40
11728;BMP180;5920;49.166;8.624;2022-08-25T10:22:48;100211.00;;;31.40
11728;BMP180;5920;49.166;8.624;2022-08-25T10:25:17;100213.00;;;31.30
11728;BMP180;5920;49.166;8.624;2022-08-25T10:27:47;100206.00;;;31.40
11728;BMP180;5920;49.166;8.624;2022-08-25T10:30:18;100207.00;;;31.40
11728;BMP180;5920;49.166;8.624;2022-08-25T10:32:56;100216.00;;;31.50
11728;BMP180;5920;49.166;8.624;2022-08-25T10:35:28;100211.00;;;31.50
11728;BMP180;5920;49.166;8.624;2022-08-25T10:37:59;100206.00;;;31.50
11728;BMP180;5920;49.166;8.624;2022-08-25T10:40:31;100202.00;;;31.50
11728;BMP180;5920;49.166;8.624;2022-08-25T10:43:04;100191.00;;;31.50
11728;BMP180;5920;49.166;8.624;2022-08-25T10:45:32;100188.00;;;31.50
11728;BMP180;5920;49.166;8.624;2022-08-25T10:48:17;100183.00;;;31.60
11728;BMP180;5920;49.166;8.624;2022-08-25T10:50:47;100174.00;;;31.70
11728;BMP180;5920;49.166;8.624;2022-08-25T10:53:20;100176.00;;;31.70
11728;BMP180;5920;49.166;8.624;2022-08-25T10:55:51;100184.00;;;31.80
11728;BMP180;5920;49.166;8.624;2022-08-25T10:58:27;100177.00;;;31.70
11728;BMP180;5920;49.166;8.624;2022-08-25T11:00:58;100165.00;;;31.60
11728;BMP180;5920;49.166;8.624;2022-08-25T11:03:31;100178.00;;;31.50
11728;BMP180;5920;49.166;8.624;2022-08-25T11:06:02;100166.00;;;31.20
11728;BMP180;5920;49.166;8.624;2022-08-25T11:08:34;100163.00;;;31.20
11728;BMP180;5920;49.166;8.624;2022-08-25T11:11:04;100164.00;;;31.20
11728;BMP180;5920;49.166;8.624;2022-08-25T11:13:36;100160.00;;;31.30
11728;BMP180;5920;49.166;8.624;2022-08-25T11:16:05;100167.00;;;31.40
11728;BMP180;5920;49.166;8.624;2022-08-25T11:18:35;100167.00;;;31.30
11728;BMP180;5920;49.166;8.624;2022-08-25T11:21:10;100155.00;;;31.20
11728;BMP180;5920;49.166;8.624;2022-08-25T11:23:38;100152.00;;;31.10
11728;BMP180;5920;49.166;8.624;2022-08-25T11:26:08;100151.00;;;31.20
11728;BMP180;5920;49.166;8.624;2022-08-25T11:28:39;100150.00;;;31.20
11728;BMP180;5920;49.166;8.624;2022-08-25T11:31:07;100144.00;;;31.10
11728;BMP180;5920;49.166;8.624;2022-08-25T11:33:34;100142.00;;;31.10
11728;BMP180;5920;49.166;8.624;2022-08-25T11:36:04;100142.00;;;31.20
11728;BMP180;5920;49.166;8.624;2022-08-25T11:38:35;100131.00;;;31.20
11728;BMP180;5920;49.166;8.624;2022-08-25T11:41:08;100138.00;;;31.20
11728;BMP180;5920;49.166;8.624;2022-08-25T11:43:47;100136.00;;;31.30
11728;BMP180;5920;49.166;8.624;2022-08-25T11:46:22;100136.00;;;31.30
11728;BMP180;5920;49.166;8.624;2022-08-25T11:48:53;100144.00;;;31.40
11728;BMP180;5920;49.166;8.624;2022-08-25T11:51:27;100147.00;;;31.30
11728;BMP180;5920;49.166;8.624;2022-08-25T11:54:04;100135.00;;;31.30
11728;BMP180;5920;49.166;8.624;2022-08-25T11:56:35;100128.00;;;31.40
11728;BMP180;5920;49.166;8.624;2022-08-25T11:59:02;100129.00;;;31.40
11728;BMP180;5920;49.166;8.624;2022-08-25T12:04:14;100126.00;;;31.30
11728;BMP180;5920;49.166;8.624;2022-08-25T12:07:14;100117.00;;;31.30
11728;BMP180;5920;49.166;8.624;2022-08-25T12:12:28;100108.00;;;31.50
11728;BMP180;5920;49.166;8.624;2022-08-25T12:14:55;100119.00;;;31.60
11728;BMP180;5920;49.166;8.624;2022-08-25T12:17:38;100105.00;;;31.60
11728;BMP180;5920;49.166;8.624;2022-08-25T12:20:05;100112.00;;;31.60
11728;BMP180;5920;49.166;8.624;2022-08-25T12:25:28;100097.00;;;31.60
11728;BMP180;5920;49.166;8.624;2022-08-25T12:28:00;100094.00;;;31.70
11728;BMP180;5920;49.166;8.624;2022-08-25T12:30:31;100096.00;;;31.70
11728;BMP180;5920;49.166;8.624;2022-08-25T12:33:01;100088.00;;;31.60
11728;BMP180;5920;49.166;8.624;2022-08-25T12:35:36;100090.00;;;31.60
11728;BMP180;5920;49.166;8.624;2022-08-25T12:38:05;100080.00;;;31.50
11728;BMP180;5920;49.166;8.624;2022-08-25T12:40:34;100080.00;;;31.60
11728;BMP180;5920;49.166;8.624;2022-08-25T12:43:05;100080.00;;;31.60
11728;BMP180;5920;49.166;8.624;2022-08-25T12:45:33;100075.00;;;31.70
11728;BMP180;5920;49.166;8.624;2022-08-25T12:50:49;100083.00;;;31.70
11728;BMP180;5920;49.166;8.624;2022-08-25T12:53:23;100079.00;;;31.60
11728;BMP180;5920;49.166;8.624;2022-08-25T12:55:55;100080.00;;;31.60
11728;BMP180;5920;49.166;8.624;2022-08-25T12:58:24;100075.00;;;31.70
11728;BMP180;5920;49.166;8.624;2022-08-25T13:01:03;100078.00;;;31.70
11728;BMP180;5920;49.166;8.624;2022-08-25T13:06:20;100079.00;;;31.70
11728;BMP180;5920;49.166;8.624;2022-08-25T13:11:37;100061.00;;;31.70
11728;BMP180;5920;49.166;8.624;2022-08-25T13:14:11;100073.00;;;31.70
11728;BMP180;5920;49.166;8.624;2022-08-25T13:16:50;100058.00;;;31.70
11728;BMP180;5920;49.166;8.624;2022-08-25T13:19:17;100062.00;;;31.70
11728;BMP180;5920;49.166;8.624;2022-08-25T13:21:44;100060.00;;;31.70
11728;BMP180;5920;49.166;8.624;2022-08-25T13:24:13;100055.00;;;31.80
11728;BMP180;5920;49.166;8.624;2022-08-25T13:26:42;100057.00;;;31.80
11728;BMP180;5920;49.166;8.624;2022-08-25T13:29:13;100050.00;;;31.80
11728;BMP180;5920;49.166;8.624;2022-08-25T13:31:49;100046.00;;;31.90
11728;BMP180;5920;49.166;8.624;2022-08-25T13:34:16;100044.00;;;32.00
11728;BMP180;5920;49.166;8.624;2022-08-25T13:36:44;100042.00;;;32.10
11728;BMP180;5920;49.166;8.624;2022-08-25T13:39:28;100036.00;;;32.20
11728;BMP180;5920;49.166;8.624;2022-08-25T13:41:57;100035.00;;;32.20
11728;BMP180;5920;49.166;8.624;2022-08-25T13:44:27;100038.00;;;32.20
11728;BMP180;5920;49.166;8.624;2022-08-25T13:47:04;100033.00;;;32.10
11728;BMP180;5920;49.166;8.624;2022-08-25T13:49:31;100025.00;;;32.10
11728;BMP180;5920;49.166;8.624;2022-08-25T13:51:57;100032.00;;;32.00
11728;BMP180;5920;49.166;8.624;2022-08-25T13:54:25;100027.00;;;31.90
11728;BMP180;5920;49.166;8.624;2022-08-25T13:56:52;100027.00;;;31.80
11728;BMP180;5920;49.166;8.624;2022-08-25T13:59:20;100028.00;;;31.80
11728;BMP180;5920;49.166;8.624;2022-08-25T14:01:49;100023.00;;;31.80
11728;BMP180;5920;49.166;8.624;2022-08-25T14:04:20;100021.00;;;31.80
11728;BMP180;5920;49.166;8.624;2022-08-25T14:06:48;100018.00;;;31.80
11728;BMP180;5920;49.166;8.624;2022-08-25T14:09:35;100006.00;;;31.90
11728;BMP180;5920;49.166;8.624;2022-08-25T14:12:03;100005.00;;;32.00
11728;BMP180;5920;49.166;8.624;2022-08-25T14:14:30;100008.00;;;32.10
11728;BMP180;5920;49.166;8.624;2022-08-25T14:17:02;100002.00;;;32.10
11728;BMP180;5920;49.166;8.624;2022-08-25T14:19:29;100002.00;;;32.10
11728;BMP180;5920;49.166;8.624;2022-08-25T14:21:56;99996.00;;;32.10
11728;BMP180;5920;49.166;8.624;2022-08-25T14:24:26;99995.00;;;32.10
11728;BMP180;5920;49.166;8.624;2022-08-25T14:26:53;99989.00;;;32.20
11728;BMP180;5920;49.166;8.624;2022-08-25T14:29:20;99985.00;;;32.20
11728;BMP180;5920;49.166;8.624;2022-08-25T14:31:47;99986.00;;;32.20
11728;BMP180;5920;49.166;8.624;2022-08-25T14:34:15;99990.00;;;32.20